createdAt,value
2019-03-29T00:01:10.942Z,88.39
2019-03-29T00:03:45.265Z,88.14
2019-03-29T00:06:30.763Z,87.97
2019-03-29T00:09:06.294Z,87.81
2019-03-29T00:11:40.706Z,87.83
2019-03-29T00:14:34.459Z,87.98
2019-03-29T00:17:10.027Z,88.00
2019-03-29T00:20:07.159Z,88.10
2019-03-29T00:22:41.465Z,88.29
2019-03-29T00:25:37.271Z,88.51
2019-03-29T00:28:11.976Z,88.56
2019-03-29T00:30:46.287Z,88.51
2019-03-29T00:33:20.382Z,88.43
2019-03-29T00:36:10.815Z,88.38
2019-03-29T00:39:01.927Z,88.33
2019-03-29T00:41:39.266Z,88.30
2019-03-29T00:44:13.658Z,88.39
2019-03-29T00:46:59.113Z,88.37
2019-03-29T00:49:36.116Z,88.34
2019-03-29T00:52:11.000Z,88.34
2019-03-29T00:54:46.563Z,88.39
2019-03-29T00:57:43.785Z,88.40
2019-03-29T01:00:18.656Z,88.54
2019-03-29T01:03:08.549Z,88.63
2019-03-29T01:05:43.130Z,88.71
2019-03-29T01:08:18.330Z,88.74
2019-03-29T01:11:04.827Z,88.73
2019-03-29T01:13:41.215Z,88.81
2019-03-29T01:16:33.891Z,88.70
2019-03-29T01:19:09.679Z,88.62
2019-03-29T01:21:45.546Z,88.59
2019-03-29T01:24:32.971Z,88.67
2019-03-29T01:27:06.872Z,88.66
2019-03-29T01:29:59.920Z,88.62
2019-03-29T01:32:34.047Z,88.66
2019-03-29T01:35:09.325Z,88.57
2019-03-29T01:37:43.762Z,88.64
2019-03-29T01:40:18.135Z,88.74
2019-03-29T01:42:52.973Z,88.80
2019-03-29T01:45:26.666Z,88.87
2019-03-29T01:48:00.422Z,89.06
2019-03-29T01:50:35.162Z,89.05
2019-03-29T01:53:12.084Z,89.03
2019-03-29T01:55:46.282Z,89.05
2019-03-29T01:58:20.308Z,89.11
2019-03-29T02:01:11.053Z,89.21
2019-03-29T02:03:46.357Z,89.08
2019-03-29T02:06:20.610Z,88.90
2019-03-29T02:08:54.293Z,88.78
2019-03-29T02:11:27.954Z,88.84
2019-03-29T02:14:12.849Z,88.55
2019-03-29T02:16:57.883Z,88.43
2019-03-29T02:19:32.426Z,88.47
2019-03-29T02:22:06.840Z,88.38
2019-03-29T02:24:41.169Z,88.35
2019-03-29T02:27:15.428Z,88.37
2019-03-29T02:30:00.939Z,88.46
2019-03-29T02:32:35.322Z,88.35
2019-03-29T02:35:11.478Z,88.38
2019-03-29T02:37:45.940Z,88.47
2019-03-29T02:40:32.853Z,88.50
2019-03-29T02:43:08.111Z,88.58
2019-03-29T02:45:42.431Z,88.76
2019-03-29T02:48:29.216Z,88.89
2019-03-29T02:51:05.192Z,88.94
2019-03-29T02:53:40.980Z,88.97
2019-03-29T02:56:18.661Z,88.96
2019-03-29T02:59:04.172Z,89.00
2019-03-29T03:01:38.823Z,88.88
2019-03-29T03:04:13.971Z,88.87
2019-03-29T03:06:48.740Z,88.73
2019-03-29T03:09:34.986Z,88.47
2019-03-29T03:12:08.678Z,88.26
2019-03-29T03:14:44.062Z,88.10
2019-03-29T03:17:18.416Z,87.70
2019-03-29T03:20:04.863Z,87.10
2019-03-29T03:22:39.780Z,86.93
2019-03-29T03:25:13.939Z,86.52
2019-03-29T03:27:48.290Z,86.07
2019-03-29T03:30:41.971Z,86.06
2019-03-29T03:33:16.335Z,86.08
2019-03-29T03:35:59.903Z,86.03
2019-03-29T03:38:35.239Z,86.26
2019-03-29T03:41:09.254Z,86.47
2019-03-29T03:44:01.845Z,86.33
2019-03-29T03:46:36.140Z,85.73
2019-03-29T03:49:21.378Z,85.29
2019-03-29T03:51:55.662Z,84.93
2019-03-29T03:54:29.715Z,84.64
2019-03-29T03:57:22.870Z,84.61
2019-03-29T03:59:58.682Z,84.57
2019-03-29T04:02:49.780Z,84.53
2019-03-29T04:05:24.445Z,84.45
2019-03-29T04:08:01.701Z,84.66
2019-03-29T04:10:36.049Z,84.76
2019-03-29T04:13:10.452Z,84.83
2019-03-29T04:15:50.505Z,85.08
2019-03-29T04:18:26.416Z,85.24
2019-03-29T04:21:21.432Z,85.30
2019-03-29T04:23:54.083Z,85.33
2019-03-29T04:26:28.851Z,85.34
2019-03-29T04:29:14.307Z,85.29
2019-03-29T04:31:49.528Z,85.39
2019-03-29T04:34:23.954Z,85.51
2019-03-29T04:36:57.970Z,85.48
2019-03-29T04:40:05.765Z,85.40
2019-03-29T04:42:37.822Z,85.22
2019-03-29T04:45:28.056Z,85.10
2019-03-29T04:48:21.790Z,85.42
2019-03-29T04:50:58.493Z,85.60
2019-03-29T04:57:35.327Z,85.80
2019-03-29T05:00:09.240Z,85.79
2019-03-29T05:02:44.516Z,86.12
2019-03-29T05:05:18.729Z,86.32
2019-03-29T05:08:04.191Z,86.37
2019-03-29T05:10:38.412Z,86.55
2019-03-29T05:13:13.068Z,86.83
2019-03-29T05:15:47.505Z,86.93
2019-03-29T05:18:22.295Z,87.12
2019-03-29T05:20:57.573Z,87.19
2019-03-29T05:23:31.599Z,87.30
2019-03-29T05:26:17.283Z,87.37
2019-03-29T05:28:51.402Z,87.36
2019-03-29T05:31:26.121Z,87.35
2019-03-29T05:34:00.622Z,87.27
2019-03-29T05:36:46.220Z,87.28
2019-03-29T05:39:22.469Z,87.45
2019-03-29T05:42:15.781Z,87.51
2019-03-29T05:44:59.323Z,87.48
2019-03-29T05:47:33.721Z,87.50
2019-03-29T05:50:21.707Z,87.66
2019-03-29T05:53:08.182Z,87.82
2019-03-29T05:55:44.458Z,87.92
2019-03-29T05:58:18.931Z,87.98
2019-03-29T06:01:02.492Z,87.91
2019-03-29T06:03:37.199Z,87.88
2019-03-29T06:06:28.235Z,87.89
2019-03-29T06:09:07.685Z,87.87
2019-03-29T06:11:54.072Z,87.86
2019-03-29T06:14:28.812Z,87.79
2019-03-29T06:17:02.786Z,87.83
2019-03-29T06:19:37.839Z,87.94
2019-03-29T06:22:13.061Z,88.04
2019-03-29T06:24:47.610Z,88.19
2019-03-29T06:27:22.624Z,88.20
2019-03-29T06:30:06.269Z,88.19
2019-03-29T06:32:40.744Z,88.27
2019-03-29T06:35:16.012Z,88.32
2019-03-29T06:37:50.507Z,88.47
2019-03-29T06:40:27.362Z,88.63
2019-03-29T06:43:01.454Z,88.62
2019-03-29T06:45:52.265Z,88.23
2019-03-29T06:48:27.009Z,87.43
2019-03-29T06:51:02.703Z,86.18
2019-03-29T06:53:36.748Z,84.52
2019-03-29T06:56:10.229Z,83.23
2019-03-29T06:58:47.372Z,82.61
2019-03-29T07:01:32.809Z,81.13
2019-03-29T07:04:25.312Z,80.60
2019-03-29T07:07:00.575Z,80.25
2019-03-29T07:09:47.169Z,79.03
2019-03-29T07:12:22.670Z,78.48
2019-03-29T07:14:57.406Z,77.95
2019-03-29T07:17:53.703Z,77.03
2019-03-29T07:20:27.401Z,77.12
2019-03-29T07:23:02.129Z,76.54
2019-03-29T07:25:37.568Z,76.48
2019-03-29T07:28:12.062Z,76.27
2019-03-29T07:30:58.387Z,75.64
2019-03-29T07:33:32.418Z,75.91
2019-03-29T07:36:06.925Z,75.08
2019-03-29T07:38:52.819Z,73.55
2019-03-29T07:41:32.080Z,73.11
2019-03-29T07:44:04.460Z,71.97
2019-03-29T07:46:38.699Z,71.66
2019-03-29T07:49:13.175Z,71.19
2019-03-29T07:52:00.547Z,70.78
2019-03-29T07:54:46.340Z,70.39
2019-03-29T07:57:21.180Z,70.56
2019-03-29T08:00:06.556Z,70.63
2019-03-29T08:02:41.618Z,70.29
2019-03-29T08:05:16.017Z,69.55
2019-03-29T08:08:06.644Z,70.13
2019-03-29T08:10:53.857Z,69.22
2019-03-29T08:13:29.066Z,68.06
2019-03-29T08:16:06.590Z,67.61
2019-03-29T08:18:40.249Z,67.70
2019-03-29T08:21:26.658Z,67.91
2019-03-29T08:24:01.175Z,66.69
2019-03-29T08:26:37.368Z,66.01
2019-03-29T08:29:12.195Z,66.39
2019-03-29T08:31:46.695Z,67.39
2019-03-29T08:34:31.791Z,66.47
2019-03-29T08:37:17.804Z,65.59
2019-03-29T08:39:56.209Z,65.48
2019-03-29T08:42:28.783Z,64.88
2019-03-29T08:45:03.394Z,65.20
2019-03-29T08:47:40.830Z,65.18
2019-03-29T08:50:15.154Z,64.72
2019-03-29T08:52:49.163Z,65.40
2019-03-29T08:55:23.459Z,65.26
2019-03-29T08:58:09.265Z,64.72
2019-03-29T09:00:44.792Z,64.49
2019-03-29T09:03:19.197Z,64.77
2019-03-29T09:06:04.889Z,65.10
2019-03-29T09:08:57.839Z,64.11
2019-03-29T09:11:32.417Z,64.39
2019-03-29T09:14:06.405Z,63.97
2019-03-29T09:16:40.618Z,63.61
2019-03-29T09:19:26.319Z,64.15
2019-03-29T09:22:00.754Z,63.76
2019-03-29T09:24:51.760Z,63.42
2019-03-29T09:27:25.825Z,63.69
2019-03-29T09:30:00.973Z,64.75
2019-03-29T09:32:36.137Z,63.32
2019-03-29T09:35:24.559Z,62.74
2019-03-29T09:38:01.033Z,61.76
2019-03-29T09:40:34.783Z,62.47
2019-03-29T09:43:09.272Z,62.35
2019-03-29T09:46:03.324Z,62.75
2019-03-29T09:48:37.599Z,62.23
2019-03-29T09:51:12.939Z,61.64
2019-03-29T09:53:47.452Z,60.98
2019-03-29T09:56:38.618Z,62.37
2019-03-29T09:59:06.781Z,62.68
2019-03-29T10:01:40.867Z,61.20
2019-03-29T10:04:32.936Z,61.70
2019-03-29T10:07:07.341Z,60.50
2019-03-29T10:09:54.345Z,60.55
2019-03-29T10:12:42.784Z,60.46
2019-03-29T10:15:05.269Z,60.17
2019-03-29T10:17:51.897Z,59.58
2019-03-29T10:20:26.374Z,60.42
2019-03-29T10:23:12.056Z,59.40
2019-03-29T10:25:58.824Z,60.21
2019-03-29T10:28:50.324Z,59.40
2019-03-29T10:31:32.097Z,59.83
2019-03-29T10:34:00.441Z,58.72
2019-03-29T10:36:34.819Z,59.80
2019-03-29T10:39:21.714Z,58.59
2019-03-29T10:41:54.394Z,57.79
2019-03-29T10:44:28.959Z,58.32
2019-03-29T10:47:03.366Z,58.33
2019-03-29T10:49:48.766Z,58.88
2019-03-29T10:52:34.886Z,58.15
2019-03-29T10:55:24.492Z,57.04
2019-03-29T10:57:58.658Z,57.38
2019-03-29T11:00:45.063Z,57.32
2019-03-29T11:03:19.542Z,57.23
2019-03-29T11:05:53.617Z,56.93
2019-03-29T11:08:28.080Z,56.86
2019-03-29T11:11:02.140Z,56.57
2019-03-29T11:13:47.382Z,57.10
2019-03-29T11:16:30.215Z,56.51
2019-03-29T11:19:16.289Z,56.25
2019-03-29T11:21:50.683Z,55.98
2019-03-29T11:24:36.839Z,56.04
2019-03-29T11:27:23.131Z,55.72
2019-03-29T11:30:13.945Z,55.66
2019-03-29T11:32:57.262Z,54.99
2019-03-29T11:35:32.270Z,55.62
2019-03-29T11:38:05.011Z,56.73
2019-03-29T11:40:39.494Z,55.86
2019-03-29T11:43:26.127Z,55.44
2019-03-29T11:46:01.882Z,54.65
2019-03-29T11:48:36.331Z,54.75
2019-03-29T11:51:20.172Z,54.06
2019-03-29T11:53:54.837Z,54.74
2019-03-29T11:56:29.461Z,54.36
2019-03-29T11:59:12.774Z,55.24
2019-03-29T12:01:48.326Z,53.52
2019-03-29T12:04:23.684Z,54.07
2019-03-29T12:06:57.896Z,54.02
2019-03-29T12:09:32.008Z,53.07
2019-03-29T12:12:27.444Z,54.09
2019-03-29T12:15:00.404Z,53.50
2019-03-29T12:17:52.018Z,53.14
2019-03-29T12:20:35.742Z,53.82
2019-03-29T12:23:11.926Z,53.42
2019-03-29T12:25:46.176Z,53.06
2019-03-29T12:28:21.056Z,53.98
2019-03-29T12:30:55.459Z,53.24
2019-03-29T12:33:46.825Z,52.62
2019-03-29T12:36:33.597Z,52.26
2019-03-29T12:39:08.246Z,52.37
2019-03-29T12:41:42.817Z,51.87
2019-03-29T12:44:39.097Z,52.01
2019-03-29T12:47:13.736Z,51.29
2019-03-29T12:49:57.045Z,51.91
2019-03-29T12:52:31.857Z,51.71
2019-03-29T12:55:18.356Z,52.11
2019-03-29T12:57:52.196Z,52.03
2019-03-29T13:00:28.233Z,51.60
2019-03-29T13:03:14.381Z,50.99
2019-03-29T13:05:59.547Z,52.28
2019-03-29T13:08:34.478Z,50.21
2019-03-29T13:11:19.824Z,51.13
2019-03-29T13:14:09.177Z,52.33
2019-03-29T13:16:31.734Z,51.74
2019-03-29T13:19:17.814Z,50.81
2019-03-29T13:21:52.337Z,51.05
2019-03-29T13:24:39.069Z,50.92
2019-03-29T13:27:12.862Z,50.21
2019-03-29T13:29:47.371Z,50.21
2019-03-29T13:32:33.383Z,50.75
2019-03-29T13:35:08.124Z,51.02
2019-03-29T13:37:43.725Z,51.04
2019-03-29T13:40:27.830Z,50.50
2019-03-29T13:43:02.328Z,50.30
2019-03-29T13:45:37.515Z,49.54
2019-03-29T13:48:13.842Z,49.85
2019-03-29T13:51:04.447Z,49.03
2019-03-29T13:53:49.834Z,48.68
2019-03-29T13:56:35.244Z,49.39
2019-03-29T13:59:20.687Z,49.08
2019-03-29T14:01:55.248Z,49.38
2019-03-29T14:04:29.293Z,50.37
2019-03-29T14:07:16.830Z,50.40
2019-03-29T14:10:03.934Z,50.04
2019-03-29T14:12:39.506Z,50.06
2019-03-29T14:15:26.300Z,49.24
2019-03-29T14:18:01.992Z,49.31
2019-03-29T14:20:46.876Z,48.84
2019-03-29T14:23:31.243Z,48.85
2019-03-29T14:26:05.644Z,49.59
2019-03-29T14:28:40.492Z,48.28
2019-03-29T14:31:27.304Z,49.25
2019-03-29T14:34:13.755Z,49.63
2019-03-29T14:36:47.929Z,48.84
2019-03-29T14:39:33.314Z,49.28
2019-03-29T14:42:07.803Z,49.57
2019-03-29T14:44:52.465Z,50.05
2019-03-29T14:47:19.781Z,49.71
2019-03-29T14:50:06.918Z,50.36
2019-03-29T14:52:41.922Z,50.36
2019-03-29T14:55:19.320Z,49.76
2019-03-29T14:58:03.765Z,49.51
2019-03-29T15:00:48.739Z,50.25
2019-03-29T15:03:40.957Z,51.07
2019-03-29T15:06:15.394Z,50.19
2019-03-29T15:09:08.617Z,51.41
2019-03-29T15:11:54.987Z,49.79
2019-03-29T15:14:30.129Z,50.57
2019-03-29T15:17:04.223Z,50.36
2019-03-29T15:19:49.801Z,50.17
2019-03-29T15:22:36.231Z,50.41
2019-03-29T15:25:09.966Z,51.26
2019-03-29T15:27:44.561Z,50.15
2019-03-29T15:30:20.163Z,50.21
2019-03-29T15:32:56.906Z,50.21
2019-03-29T15:35:31.095Z,50.95
2019-03-29T15:38:06.674Z,50.76
2019-03-29T15:40:41.516Z,50.76
2019-03-29T15:43:28.054Z,52.38
2019-03-29T15:46:03.524Z,52.51
2019-03-29T15:48:38.094Z,51.92
2019-03-29T15:51:23.685Z,52.08
2019-03-29T15:53:57.698Z,52.30
2019-03-29T15:56:31.472Z,53.15
2019-03-29T15:59:05.401Z,53.20
2019-03-29T16:01:39.480Z,53.19
2019-03-29T16:04:18.700Z,53.08
2019-03-29T16:06:53.219Z,53.08
2019-03-29T16:09:45.525Z,53.28
2019-03-29T16:12:20.295Z,53.35
2019-03-29T16:14:54.875Z,52.93
2019-03-29T16:17:28.068Z,53.22
2019-03-29T16:20:08.424Z,53.03
2019-03-29T16:22:50.566Z,53.64
2019-03-29T16:25:42.285Z,54.48
2019-03-29T16:28:19.608Z,53.90
2019-03-29T16:30:54.530Z,53.99
2019-03-29T16:33:29.240Z,54.18
2019-03-29T16:36:21.658Z,54.31
2019-03-29T16:38:55.812Z,54.26
2019-03-29T16:41:41.863Z,54.47
2019-03-29T16:44:15.959Z,54.34
2019-03-29T16:46:50.575Z,54.58
2019-03-29T16:49:25.117Z,54.71
2019-03-29T16:52:00.024Z,54.59
2019-03-29T16:54:36.124Z,55.28
2019-03-29T16:57:11.139Z,55.61
2019-03-29T17:00:01.758Z,55.49
2019-03-29T17:02:36.115Z,55.83
2019-03-29T17:05:10.374Z,55.68
2019-03-29T17:07:44.966Z,55.87
2019-03-29T17:10:18.711Z,56.34
2019-03-29T17:13:04.930Z,56.41
2019-03-29T17:16:01.838Z,56.85
2019-03-29T17:18:29.428Z,57.08
2019-03-29T17:21:15.926Z,57.71
2019-03-29T17:23:52.666Z,57.75
2019-03-29T17:26:26.503Z,60.05
2019-03-29T17:29:18.828Z,60.91
2019-03-29T17:31:52.968Z,61.31
2019-03-29T17:34:28.118Z,61.86
2019-03-29T17:37:02.545Z,62.96
2019-03-29T17:39:36.675Z,63.36
2019-03-29T17:42:10.435Z,63.82
2019-03-29T17:44:45.457Z,64.36
2019-03-29T17:47:31.768Z,64.03
2019-03-29T17:50:06.341Z,64.67
2019-03-29T17:52:42.361Z,64.94
2019-03-29T17:55:35.538Z,65.61
2019-03-29T17:58:09.713Z,66.23
2019-03-29T18:00:44.102Z,67.08
2019-03-29T18:03:19.862Z,67.73
2019-03-29T18:05:54.327Z,67.82
2019-03-29T18:08:28.819Z,68.04
2019-03-29T18:11:03.196Z,67.90
2019-03-29T18:13:37.662Z,68.13
2019-03-29T18:16:12.216Z,68.77
2019-03-29T18:18:47.361Z,69.65
2019-03-29T18:21:21.669Z,70.55
2019-03-29T18:23:57.067Z,70.98
2019-03-29T18:26:44.629Z,71.39
2019-03-29T18:29:37.188Z,71.28
2019-03-29T18:32:11.681Z,70.92
2019-03-29T18:34:46.386Z,71.01
2019-03-29T18:37:36.407Z,71.38
2019-03-29T18:40:19.868Z,71.65
2019-03-29T18:43:16.541Z,72.13
2019-03-29T18:45:50.690Z,72.56
2019-03-29T18:48:37.545Z,73.20
2019-03-29T18:51:24.241Z,73.47
2019-03-29T18:53:58.919Z,73.50
2019-03-29T18:56:34.454Z,73.60
2019-03-29T18:59:09.931Z,73.79
2019-03-29T19:01:57.739Z,74.15
2019-03-29T19:04:50.421Z,74.60
2019-03-29T19:07:30.481Z,75.00
2019-03-29T19:10:05.338Z,75.43
2019-03-29T19:12:39.607Z,75.46
2019-03-29T19:15:14.081Z,75.70
2019-03-29T19:17:48.671Z,75.80
2019-03-29T19:20:34.536Z,75.99
2019-03-29T19:23:09.340Z,76.03
2019-03-29T19:25:54.834Z,76.24
2019-03-29T19:28:27.783Z,76.81
2019-03-29T19:31:02.608Z,77.28
2019-03-29T19:33:36.903Z,77.01
2019-03-29T19:36:12.518Z,76.79
2019-03-29T19:38:48.369Z,77.04
2019-03-29T19:41:22.861Z,77.53
2019-03-29T19:44:18.702Z,77.59
2019-03-29T19:47:13.600Z,77.67
2019-03-29T19:49:51.007Z,77.71
2019-03-29T19:52:26.907Z,77.82
2019-03-29T19:55:01.424Z,78.05
2019-03-29T19:57:36.501Z,78.80
2019-03-29T20:00:22.001Z,79.34
2019-03-29T20:02:56.472Z,79.11
2019-03-29T20:05:34.710Z,79.14
2019-03-29T20:08:18.694Z,79.03
2019-03-29T20:11:10.739Z,79.11
2019-03-29T20:13:46.192Z,79.27
2019-03-29T20:16:20.961Z,79.37
2019-03-29T20:19:10.065Z,79.33
2019-03-29T20:21:44.374Z,79.49
2019-03-29T20:24:31.537Z,79.56
2019-03-29T20:27:12.559Z,79.57
2019-03-29T20:29:51.322Z,79.45
2019-03-29T20:32:43.167Z,79.59
2019-03-29T20:35:16.974Z,79.73
2019-03-29T20:37:53.614Z,79.93
2019-03-29T20:40:32.318Z,79.84
2019-03-29T20:43:08.760Z,79.87
2019-03-29T20:45:43.437Z,80.29
2019-03-29T20:48:35.891Z,80.83
2019-03-29T20:51:10.043Z,81.23
2019-03-29T20:53:55.933Z,81.41
2019-03-29T20:56:35.566Z,81.41
2019-03-29T20:59:10.157Z,81.29
2019-03-29T21:01:54.191Z,81.21
2019-03-29T21:04:28.885Z,81.12
2019-03-29T21:07:09.316Z,81.20
2019-03-29T21:09:43.817Z,81.13
2019-03-29T21:12:20.815Z,80.53
2019-03-29T21:14:58.794Z,79.85
2019-03-29T21:18:05.399Z,79.80
2019-03-29T21:20:54.010Z,80.05
2019-03-29T21:23:57.809Z,80.82
2019-03-29T21:26:41.700Z,81.38
2019-03-29T21:29:16.932Z,81.34
2019-03-29T21:31:51.462Z,81.26
2019-03-29T21:34:25.969Z,81.32
2019-03-29T21:37:00.018Z,81.53
2019-03-29T21:39:57.400Z,81.65
2019-03-29T21:42:32.340Z,81.85
2019-03-29T21:45:28.150Z,81.66
2019-03-29T21:48:25.487Z,81.35
2019-03-29T21:50:56.629Z,81.11
2019-03-29T21:53:31.136Z,81.00
2019-03-29T21:56:05.371Z,81.04
2019-03-29T21:58:39.872Z,81.20
2019-03-29T22:01:15.828Z,81.45
2019-03-29T22:03:51.123Z,81.59
2019-03-29T22:06:26.331Z,81.56
2019-03-29T22:09:00.628Z,81.53
2019-03-29T22:11:37.525Z,81.86
2019-03-29T22:14:13.579Z,82.17
2019-03-29T22:16:49.849Z,82.46
2019-03-29T22:19:42.150Z,82.83
2019-03-29T22:22:17.323Z,83.16
2019-03-29T22:24:51.566Z,83.25
2019-03-29T22:27:45.242Z,83.18
2019-03-29T22:30:21.650Z,83.19
2019-03-29T22:32:55.391Z,83.44
2019-03-29T22:35:29.526Z,83.48
2019-03-29T22:38:24.966Z,83.39
2019-03-29T22:41:17.098Z,83.12
2019-03-29T22:44:11.632Z,82.49
2019-03-29T22:46:56.348Z,82.11
2019-03-29T22:49:32.524Z,81.71
2019-03-29T22:52:17.830Z,81.38
2019-03-29T22:54:53.806Z,81.88
2019-03-29T22:57:44.284Z,82.39
2019-03-29T23:00:27.886Z,82.32
2019-03-29T23:03:14.921Z,82.30
2019-03-29T23:05:50.023Z,82.23
2019-03-29T23:08:25.879Z,82.09
2019-03-29T23:11:15.140Z,81.86
2019-03-29T23:14:01.611Z,82.00
2019-03-29T23:16:40.066Z,82.21
2019-03-29T23:19:25.511Z,82.30
2019-03-29T23:22:09.902Z,82.27
2019-03-29T23:24:59.741Z,82.18
2019-03-29T23:27:33.805Z,82.04
2019-03-29T23:30:09.572Z,81.90
2019-03-29T23:32:44.543Z,82.03
2019-03-29T23:35:28.782Z,81.94
2019-03-29T23:38:18.576Z,81.61
2019-03-29T23:41:13.984Z,81.40
2019-03-29T23:44:04.267Z,81.38
2019-03-29T23:46:49.983Z,82.08
2019-03-29T23:49:24.324Z,82.42
2019-03-29T23:51:59.238Z,82.50
2019-03-29T23:54:34.413Z,82.39
2019-03-29T23:57:09.345Z,82.06
2019-03-29T23:59:43.935Z,81.98
